Milagro, Argentina
Current Conditions -  °F | °C
As of 1:00 PM on Thursday 30 Oct 2014 (Local Time) from SACO Reporting Station
Scattered Clouds Scattered Clouds  
Wind Chill: 25°   Ceiling: Unl
Heat Index: 26°   Visibility: 6mi
Dew Point: 11°   Wind: 7mph
Humidity: 41%   Direction: 50°NE
Pressure: 29.91"   Gusts: NA
Location:  31.02°S, 65.98°W
Report Text: SACO 301600Z 05006KT 9999 SCT020 SCT10025/11 Q1013
Loading
Personal Weather Stations






























Interactive Weather Map
Tropical Storm Tracking
New forecast layout! Learn more

10-Day Weather Forecast

Advertisements
Track Severe Weather on mobile